Time;durP1;ratioP1;P1;durP2;ratioP2;P2;SDS_P1;SDS_P2;PMS_P1;PMS_P2;Temp;Humidity;BMP_temperature;BMP_pressure;BME280_temperature;BME280_humidity;BME280_pressure;Samples;Min_cycle;Max_cycle;Signal;HPM_P1;HPM_P2
2023/11/16 00:00:42;;;;;;;22.40;11.70;;;;;;;-147.86;100.00;50484.89;105932;1257;72395;-45
2023/11/16 00:03:09;;;;;;;17.80;10.60;;;;;;;-147.86;100.00;50482.54;105924;1256;61813;-46
2023/11/16 00:05:36;;;;;;;18.50;11.40;;;;;;;-147.86;100.00;50478.61;105904;1254;60501;-47
2023/11/16 00:08:07;;;;;;;18.30;11.20;;;;;;;-147.86;100.00;50481.36;105949;1252;73855;-44
2023/11/16 00:10:37;;;;;;;16.50;10.40;;;;;;;-147.86;100.00;50496.26;105954;1257;65379;-44
2023/11/16 00:13:07;;;;;;;18.50;10.60;;;;;;;-147.86;100.00;50505.29;105898;1256;72428;-45
2023/11/16 00:15:35;;;;;;;16.00;10.40;;;;;;;-147.86;100.00;50510.39;105855;1256;61895;-47
2023/11/16 00:18:05;;;;;;;19.50;10.60;;;;;;;-147.86;100.00;50494.30;105939;1254;60463;-48
2023/11/16 00:20:35;;;;;;;17.00;10.30;;;;;;;-147.86;100.00;50506.86;105920;1256;73932;-47
2023/11/16 00:23:03;;;;;;;16.10;10.20;;;;;;;-147.86;100.00;50504.50;105947;1254;65611;-48
2023/11/16 00:25:31;;;;;;;17.00;10.40;;;;;;;-147.86;100.00;50503.32;105874;1256;72768;-45
2023/11/16 00:27:59;;;;;;;16.00;11.00;;;;;;;-147.86;100.00;50489.20;105946;1256;60332;-46
2023/11/16 00:30:26;;;;;;;17.80;11.50;;;;;;;-147.86;100.00;50485.28;105935;1252;60471;-46
2023/11/16 00:32:53;;;;;;;18.20;10.90;;;;;;;-147.86;100.00;50493.13;105962;1252;73876;-46
2023/11/16 00:35:21;;;;;;;18.30;11.40;;;;;;;-147.86;100.00;50515.88;105927;1256;65334;-46
2023/11/16 00:37:51;;;;;;;20.50;11.30;;;;;;;-147.86;100.00;50504.50;105885;1256;72614;-47
2023/11/16 00:40:19;;;;;;;18.00;12.00;;;;;;;-147.86;100.00;50502.14;105901;1257;61820;-48
2023/11/16 00:42:46;;;;;;;19.10;11.30;;;;;;;-147.86;100.00;50497.05;105909;1254;60536;-46
2023/11/16 00:45:13;;;;;;;16.70;11.10;;;;;;;-147.86;100.00;50517.05;105926;1252;72372;-46
2023/11/16 00:47:40;;;;;;;17.70;12.00;;;;;;;-147.86;100.00;50498.23;105933;1265;65229;-47
2023/11/16 00:50:08;;;;;;;19.20;12.00;;;;;;;-147.86;100.00;50508.43;105916;1257;72566;-45
2023/11/16 00:52:35;;;;;;;19.40;12.10;;;;;;;-147.86;100.00;50489.99;105903;1256;61963;-46
2023/11/16 00:55:04;;;;;;;17.00;11.80;;;;;;;-147.86;100.00;50502.93;105876;1257;60441;-45
2023/11/16 00:57:31;;;;;;;18.30;11.20;;;;;;;-147.86;100.00;50502.54;105899;1256;73664;-48
2023/11/16 00:59:58;;;;;;;16.30;11.80;;;;;;;-147.86;100.00;50512.74;105982;1256;65167;-45
2023/11/16 01:02:25;;;;;;;24.40;11.90;;;;;;;-147.86;100.00;50486.46;105919;1256;72546;-44
2023/11/16 01:04:53;;;;;;;21.50;12.60;;;;;;;-147.86;100.00;50493.13;105907;1256;61791;-48
2023/11/16 01:07:21;;;;;;;21.30;12.70;;;;;;;-147.86;100.00;50489.21;105876;1257;60414;-47
2023/11/16 01:09:48;;;;;;;17.40;11.70;;;;;;;-147.86;100.00;50482.93;105911;1256;73780;-46
2023/11/16 01:12:15;;;;;;;18.80;11.30;;;;;;;-147.86;100.00;50481.75;105887;1256;65532;-48
2023/11/16 01:14:44;;;;;;;16.60;10.90;;;;;;;-147.86;100.00;50474.68;105933;1253;72602;-48
2023/11/16 01:17:33;;;;;;;24.80;12.40;;;;;;;-147.86;100.00;50500.18;105943;1256;60354;-46
2023/11/16 01:20:04;;;;;;;20.80;12.40;;;;;;;-147.86;100.00;50499.40;105908;1256;60540;-45
2023/11/16 01:22:40;;;;;;;18.80;11.90;;;;;;;-147.86;100.00;50471.94;105947;1256;73240;-47
2023/11/16 01:25:15;;;;;;;17.90;11.40;;;;;;;-147.86;100.00;50494.70;105882;1256;65506;-46
2023/11/16 01:27:50;;;;;;;11.20;7.70;;;;;;;-147.86;100.00;50488.81;105670;1256;72658;-44
2023/11/16 01:30:17;;;;;;;;;;;;;;;-147.86;100.00;50478.61;105684;1253;61866;-47
2023/11/16 01:32:45;;;;;;;17.60;11.50;;;;;;;-147.86;100.00;50471.16;105891;1255;60440;-47
2023/11/16 01:35:14;;;;;;;18.40;11.20;;;;;;;-147.86;100.00;50489.59;105918;1257;72706;-50
2023/11/16 01:37:42;;;;;;;19.10;11.40;;;;;;;-147.86;100.00;50475.08;105900;1256;65427;-48
2023/11/16 01:40:10;;;;;;;18.10;11.00;;;;;;;-147.86;100.00;50465.66;105914;1256;72624;-49
2023/11/16 01:42:37;;;;;;;23.40;11.00;;;;;;;-147.86;100.00;50477.43;105883;1257;61683;-49
2023/11/16 01:48:09;;;;;;;18.80;10.80;;;;;;;-147.86;100.00;50400.59;102517;1295;603717;-44
2023/11/16 01:50:37;;;;;;;21.40;11.20;;;;;;;-147.86;100.00;50590.80;105146;1268;61977;-48
2023/11/16 01:53:10;;;;;;;18.90;10.30;;;;;;;-147.86;100.00;50542.55;105139;1266;60321;-47
2023/11/16 01:55:42;;;;;;;14.20;10.60;;;;;;;-147.86;100.00;50526.08;105120;1269;72134;-49
2023/11/16 01:58:10;;;;;;;16.20;11.10;;;;;;;-147.86;100.00;50529.61;104942;1269;65565;-50
2023/11/16 02:00:37;;;;;;;19.00;11.60;;;;;;;-147.86;100.00;50494.30;104792;1264;219111;-44
2023/11/16 02:03:04;;;;;;;20.20;11.30;;;;;;;-147.86;100.00;50509.60;105234;1267;61982;-45
2023/11/16 02:05:32;;;;;;;18.80;11.60;;;;;;;-147.86;100.00;50514.31;105249;1264;60261;-44
2023/11/16 02:08:01;;;;;;;18.50;11.40;;;;;;;-147.86;100.00;50506.07;105167;1267;72057;-44
2023/11/16 02:10:31;;;;;;;18.50;10.80;;;;;;;-147.86;100.00;50497.45;105229;1265;64199;-47
2023/11/16 02:13:04;;;;;;;14.80;10.20;;;;;;;-147.86;100.00;50499.01;105291;1263;72705;-45
2023/11/16 02:15:32;;;;;;;17.20;11.00;;;;;;;-147.86;100.00;50502.93;105243;1265;62013;-46
2023/11/16 02:17:59;;;;;;;17.30;11.10;;;;;;;-147.86;100.00;50498.23;105226;1263;60350;-47
2023/11/16 02:20:28;;;;;;;16.30;10.50;;;;;;;-147.86;100.00;50471.94;105201;1267;73015;-45
2023/11/16 02:22:55;;;;;;;16.40;9.70;;;;;;;-147.86;100.00;50489.98;105149;1263;65244;-48
2023/11/16 02:25:22;;;;;;;14.00;9.30;;;;;;;-147.86;100.00;50488.81;105268;1264;71176;-45
2023/11/16 02:27:49;;;;;;;21.70;10.80;;;;;;;-147.86;100.00;50470.38;105174;1262;61832;-45
2023/11/16 02:30:16;;;;;;;16.90;11.00;;;;;;;-147.86;100.00;50473.90;105207;1263;60318;-43
2023/11/16 02:32:43;;;;;;;17.30;11.00;;;;;;;-147.86;100.00;50473.12;105244;1267;72023;-49
2023/11/16 02:35:10;;;;;;;19.60;11.50;;;;;;;-147.86;100.00;50457.43;105134;1267;65361;-45
2023/11/16 02:37:37;;;;;;;20.50;12.40;;;;;;;-147.86;100.00;50464.09;105164;1264;72774;-47
2023/11/16 02:40:05;;;;;;;19.50;11.70;;;;;;;-147.86;100.00;50463.71;105381;1264;61970;-47
2023/11/16 02:42:32;;;;;;;26.60;12.40;;;;;;;-147.86;100.00;50437.81;105393;1260;60190;-45
2023/11/16 02:44:59;;;;;;;26.40;13.60;;;;;;;-147.86;100.00;50449.98;105366;1259;73090;-44
2023/11/16 02:47:29;;;;;;;17.70;13.00;;;;;;;-147.86;100.00;50447.23;105305;1263;64387;-47
2023/11/16 02:49:56;;;;;;;19.40;13.20;;;;;;;-147.86;100.00;50452.32;105223;1260;72610;-44
2023/11/16 02:52:23;;;;;;;19.00;12.10;;;;;;;-147.86;100.00;50454.29;105236;1264;61833;-46
2023/11/16 02:54:50;;;;;;;16.90;11.90;;;;;;;-147.86;100.00;50443.70;105388;1259;60278;-46
2023/11/16 02:57:20;;;;;;;17.80;11.90;;;;;;;-147.86;100.00;50437.81;105326;1263;73028;-46
2023/11/16 02:59:47;;;;;;;16.60;12.10;;;;;;;-147.86;100.00;50442.52;105272;1265;64513;-47
2023/11/16 03:02:17;;;;;;;20.70;12.50;;;;;;;-147.86;100.00;50440.16;105270;1260;72647;-45
2023/11/16 03:04:44;;;;;;;15.70;11.20;;;;;;;-147.86;100.00;50447.62;105298;1265;61936;-47
2023/11/16 03:07:11;;;;;;;17.00;11.10;;;;;;;-147.86;100.00;50424.87;105250;1260;60263;-47
2023/11/16 03:09:57;;;;;;;15.40;11.40;;;;;;;-147.86;100.00;50441.34;105204;1260;73039;-47
2023/11/16 03:12:24;;;;;;;17.70;10.40;;;;;;;-147.86;100.00;50437.02;105308;1264;65483;-47
2023/11/16 03:14:51;;;;;;;16.80;10.30;;;;;;;-147.86;100.00;50426.82;105272;1260;72809;-46
2023/11/16 03:17:20;;;;;;;17.50;10.60;;;;;;;-147.86;100.00;50435.85;105282;1263;61961;-46
2023/11/16 03:19:48;;;;;;;23.90;9.20;;;;;;;-147.86;100.00;50422.91;105261;1261;60005;-47
2023/11/16 03:22:15;;;;;;;13.30;9.30;;;;;;;-147.86;100.00;50413.88;105264;1260;71966;-48
2023/11/16 03:24:42;;;;;;;17.10;9.60;;;;;;;-147.86;100.00;50414.66;105311;1263;65531;-45
2023/11/16 03:27:10;;;;;;;15.70;10.30;;;;;;;-147.86;100.00;50422.90;105288;1260;72503;-46
2023/11/16 03:29:38;;;;;;;14.30;9.00;;;;;;;-147.86;100.00;50412.71;105286;1263;61924;-46
2023/11/16 03:32:10;;;;;;;17.30;10.00;;;;;;;-147.86;100.00;50418.20;105261;1260;60300;-47
2023/11/16 03:34:36;;;;;;;14.20;8.90;;;;;;;-147.86;100.00;50423.69;105263;1263;72004;-47
2023/11/16 03:37:04;;;;;;;14.10;8.80;;;;;;;-147.86;100.00;50413.88;105259;1265;65219;-47
2023/11/16 03:39:31;;;;;;;12.60;8.40;;;;;;;-147.86;100.00;50412.71;105305;1261;72703;-45
2023/11/16 03:41:59;;;;;;;16.40;9.20;;;;;;;-147.86;100.00;50418.20;105274;1264;60368;-46
2023/11/16 03:44:29;;;;;;;13.70;9.30;;;;;;;-147.86;100.00;50419.77;105261;1260;60313;-45
2023/11/16 03:46:56;;;;;;;16.00;8.80;;;;;;;-147.86;100.00;50404.46;105255;1264;73118;-45
2023/11/16 03:49:23;;;;;;;18.60;9.20;;;;;;;-147.86;100.00;50411.92;105219;1260;65348;-43
2023/11/16 03:51:50;;;;;;;17.10;9.00;;;;;;;-147.86;100.00;50408.78;105279;1259;72488;-45
2023/11/16 03:54:17;;;;;;;18.40;9.60;;;;;;;-147.86;100.00;50395.05;105295;1263;61938;-46
2023/11/16 03:56:44;;;;;;;13.60;8.80;;;;;;;-147.86;100.00;50415.84;105247;1260;60332;-46
2023/11/16 03:59:15;;;;;;;14.60;8.90;;;;;;;-147.86;100.00;50426.82;105295;1264;71804;-46
2023/11/16 04:01:44;;;;;;;14.70;9.30;;;;;;;-147.86;100.00;50418.20;105278;1263;64135;-47
2023/11/16 04:04:11;;;;;;;13.00;9.30;;;;;;;-147.86;100.00;50406.04;105265;1259;73144;-47
2023/11/16 04:06:39;;;;;;;14.40;9.00;;;;;;;-147.86;100.00;50409.96;105272;1264;62072;-44
2023/11/16 04:09:07;;;;;;;16.40;9.10;;;;;;;-147.86;100.00;50411.53;105305;1260;60141;-44
2023/11/16 04:11:34;;;;;;;13.10;8.70;;;;;;;-147.86;100.00;50414.66;105277;1265;72805;-47
2023/11/16 04:14:01;;;;;;;13.10;8.90;;;;;;;-147.86;100.00;50404.07;105287;1265;65268;-45
2023/11/16 04:16:28;;;;;;;17.90;10.00;;;;;;;-147.86;100.00;50415.45;105231;1261;72726;-44
2023/11/16 04:18:56;;;;;;;13.10;8.80;;;;;;;-147.86;100.00;50424.48;105278;1265;61991;-45
2023/11/16 04:21:25;;;;;;;14.40;8.30;;;;;;;-147.86;100.00;50402.11;105580;1256;60469;-44
2023/11/16 04:23:56;;;;;;;13.90;8.30;;;;;;;-147.86;100.00;50411.52;105634;1256;73100;-46
2023/11/16 04:26:24;;;;;;;17.40;8.80;;;;;;;-147.86;100.00;50409.96;105651;1260;65487;-44
2023/11/16 04:28:51;;;;;;;16.20;9.70;;;;;;;-147.86;100.00;50409.96;105622;1257;72447;-45
2023/11/16 04:31:19;;;;;;;14.80;9.60;;;;;;;-147.86;100.00;50418.98;105607;1260;60476;-45
2023/11/16 04:33:51;;;;;;;18.20;9.40;;;;;;;-147.86;100.00;50406.82;105628;1256;59988;-44
2023/11/16 04:36:18;;;;;;;17.00;9.30;;;;;;;-147.86;100.00;50412.71;105656;1258;73074;-44
2023/11/16 04:38:45;;;;;;;15.40;9.00;;;;;;;-147.86;100.00;50418.98;105939;1256;65561;-48
2023/11/16 04:41:13;;;;;;;17.80;9.10;;;;;;;-147.86;100.00;50408.39;105935;1252;72782;-47
2023/11/16 04:43:44;;;;;;;18.00;8.80;;;;;;;-147.86;100.00;50415.45;105905;1251;59673;-47
2023/11/16 04:46:12;;;;;;;13.30;9.10;;;;;;;-147.86;100.00;50417.80;105913;1251;60603;-48
2023/11/16 04:48:42;;;;;;;15.40;8.40;;;;;;;-147.86;100.00;50414.27;105967;1254;72653;-47
2023/11/16 04:51:17;;;;;;;13.20;9.10;;;;;;;-147.86;100.00;50410.35;105999;1256;65544;-47
2023/11/16 04:53:45;;;;;;;12.60;9.40;;;;;;;-147.86;100.00;50415.84;105932;1253;72480;-44
2023/11/16 04:56:13;;;;;;;14.40;8.80;;;;;;;-147.86;100.00;50409.18;105924;1256;60420;-44
2023/11/16 04:58:41;;;;;;;16.00;9.00;;;;;;;-147.86;100.00;50408.78;105929;1251;60240;-45
2023/11/16 05:01:08;;;;;;;16.80;9.10;;;;;;;-147.86;100.00;50416.63;105982;1256;73167;-46
2023/11/16 05:03:36;;;;;;;17.80;7.90;;;;;;;-147.86;100.00;50402.90;106005;1255;65365;-44
2023/11/16 05:06:04;;;;;;;17.80;9.70;;;;;;;-147.86;100.00;50400.15;105939;1253;72626;-44
2023/11/16 05:08:31;;;;;;;18.50;9.40;;;;;;;-147.86;100.00;50402.90;105905;1252;59708;-45
2023/11/16 05:10:59;;;;;;;20.40;9.30;;;;;;;-147.86;100.00;50387.99;105931;1251;60167;-43
2023/11/16 05:13:26;;;;;;;13.90;9.20;;;;;;;-147.86;100.00;50394.66;105911;1252;73046;-47
2023/11/16 05:15:53;;;;;;;12.40;8.00;;;;;;;-147.86;100.00;50399.76;105935;1256;65549;-47
2023/11/16 05:18:22;;;;;;;13.20;8.00;;;;;;;-147.86;100.00;50398.58;105947;1253;72612;-44
2023/11/16 05:20:49;;;;;;;10.90;7.30;;;;;;;-147.86;100.00;50405.25;105910;1256;61809;-46
2023/11/16 05:23:19;;;;;;;14.40;7.90;;;;;;;-147.86;100.00;50377.79;105932;1253;60253;-44
2023/11/16 05:25:46;;;;;;;13.90;8.70;;;;;;;-147.86;100.00;50374.65;105917;1252;73048;-46
2023/11/16 05:28:13;;;;;;;15.10;7.60;;;;;;;-147.86;100.00;50384.07;105963;1255;65414;-44
2023/11/16 05:30:39;;;;;;;12.20;8.00;;;;;;;-147.86;100.00;50373.48;105945;1253;72665;-45
2023/11/16 05:33:06;;;;;;;13.40;7.10;;;;;;;-147.86;100.00;50373.08;105897;1256;61920;-43
2023/11/16 05:35:34;;;;;;;11.10;7.30;;;;;;;-147.86;100.00;50367.59;105908;1253;60162;-45
2023/11/16 05:38:00;;;;;;;14.60;7.30;;;;;;;-147.86;100.00;50358.96;105929;1253;72863;-44
2023/11/16 05:40:27;;;;;;;11.10;7.30;;;;;;;-147.86;100.00;50387.99;105879;1256;65336;-45
2023/11/16 05:42:54;;;;;;;10.70;7.50;;;;;;;-147.86;100.00;50376.22;105901;1252;72478;-45
2023/11/16 05:45:21;;;;;;;16.10;7.20;;;;;;;-147.86;100.00;50385.64;105930;1255;61952;-44
2023/11/16 05:47:48;;;;;;;13.00;7.40;;;;;;;-147.86;100.00;50376.61;105887;1253;59968;-49
2023/11/16 05:50:17;;;;;;;10.90;6.80;;;;;;;-147.86;100.00;50375.44;105680;1252;73020;-47
2023/11/16 05:52:43;;;;;;;11.80;6.30;;;;;;;-147.86;100.00;50382.89;105801;1253;65414;-48
2023/11/16 05:55:10;;;;;;;13.10;6.90;;;;;;;-147.86;100.00;50391.13;105922;1256;72517;-50
2023/11/16 05:57:38;;;;;;;10.40;7.10;;;;;;;-147.86;100.00;50378.18;105934;1256;60427;-51
2023/11/16 06:00:11;;;;;;;13.80;7.30;;;;;;;-147.86;100.00;50367.98;105965;1253;60528;-47
2023/11/16 06:02:39;;;;;;;12.10;7.30;;;;;;;-147.86;100.00;50392.70;105932;1254;74072;-45
2023/11/16 06:05:09;;;;;;;11.50;7.10;;;;;;;-147.86;100.00;50394.66;105907;1256;65339;-46
2023/11/16 06:07:38;;;;;;;13.50;7.40;;;;;;;-147.86;100.00;50384.46;105951;1254;70145;-45
2023/11/16 06:10:05;;;;;;;14.80;6.90;;;;;;;-147.86;100.00;50382.89;105921;1256;61827;-47
2023/11/16 06:12:33;;;;;;;10.70;7.30;;;;;;;-147.86;100.00;50375.44;105949;1252;60534;-45
2023/11/16 06:15:00;;;;;;;13.10;7.00;;;;;;;-147.86;100.00;50393.87;105940;1255;73717;-46
2023/11/16 06:17:27;;;;;;;11.90;8.00;;;;;;;-147.86;100.00;50401.72;105901;1254;65446;-46
2023/11/16 06:19:54;;;;;;;14.20;7.10;;;;;;;-147.86;100.00;50396.62;105886;1254;72519;-45
2023/11/16 06:22:21;;;;;;;13.40;6.80;;;;;;;-147.86;100.00;50395.84;105914;1256;61853;-48
2023/11/16 06:24:47;;;;;;;9.80;7.30;;;;;;;-147.86;100.00;50395.45;105933;1252;60409;-48
2023/11/16 06:27:14;;;;;;;11.90;7.70;;;;;;;-147.86;100.00;50411.53;105946;1256;73784;-44
2023/11/16 06:29:42;;;;;;;15.30;7.80;;;;;;;-147.86;100.00;50405.25;105979;1256;65481;-46
2023/11/16 06:32:09;;;;;;;13.90;7.80;;;;;;;-147.86;100.00;50418.98;105932;1253;72582;-44
2023/11/16 06:34:36;;;;;;;12.20;8.30;;;;;;;-147.86;100.00;50423.30;105951;1256;61980;-46
2023/11/16 06:37:04;;;;;;;12.40;6.90;;;;;;;-147.86;100.00;50431.93;105914;1251;60392;-45
2023/11/16 06:39:32;;;;;;;12.30;8.30;;;;;;;-147.86;100.00;50431.93;105898;1251;72758;-47
2023/11/16 06:41:59;;;;;;;15.30;7.30;;;;;;;-147.86;100.00;50423.29;105913;1252;65430;-47
2023/11/16 06:44:27;;;;;;;7.70;6.70;;;;;;;-147.86;100.00;50458.60;105987;1251;72443;-47
2023/11/16 06:46:54;;;;;;;13.80;8.40;;;;;;;-147.86;100.00;50474.29;105963;1253;60844;-45
2023/11/16 06:49:21;;;;;;;10.30;7.30;;;;;;;-147.86;100.00;50463.70;105958;1252;60530;-47
2023/11/16 06:51:49;;;;;;;13.30;7.40;;;;;;;-147.86;100.00;50463.70;105890;1256;72804;-45
2023/11/16 06:54:17;;;;;;;12.50;7.00;;;;;;;-147.86;100.00;50496.26;105925;1254;65552;-45
2023/11/16 06:56:44;;;;;;;11.20;7.20;;;;;;;-147.86;100.00;50491.16;105916;1251;72511;-45
2023/11/16 06:59:13;;;;;;;14.00;7.30;;;;;;;-147.86;100.00;50493.91;105932;1253;60428;-47
2023/11/16 07:01:40;;;;;;;12.00;7.50;;;;;;;-147.86;100.00;50502.15;105965;1253;60475;-47
2023/11/16 07:04:09;;;;;;;8.70;6.30;;;;;;;-147.86;100.00;50491.16;105962;1255;73794;-44
2023/11/16 07:06:37;;;;;;;7.90;6.50;;;;;;;-147.86;100.00;50510.39;105932;1256;65551;-45
2023/11/16 07:09:05;;;;;;;10.50;6.70;;;;;;;-147.86;100.00;50517.45;105897;1251;71644;-45
2023/11/16 07:11:33;;;;;;;12.60;7.40;;;;;;;-147.86;100.00;50504.89;105871;1256;60435;-45
2023/11/16 07:14:00;;;;;;;12.50;8.00;;;;;;;-147.86;100.00;50531.96;105913;1251;60758;-47
2023/11/16 07:16:28;;;;;;;12.00;7.70;;;;;;;-147.86;100.00;50526.47;105935;1256;73950;-46
2023/11/16 07:18:54;;;;;;;11.40;6.50;;;;;;;-147.86;100.00;50541.77;105914;1253;65346;-48
2023/11/16 07:21:22;;;;;;;14.70;7.30;;;;;;;-147.86;100.00;50527.64;105946;1254;72687;-48
2023/11/16 07:23:52;;;;;;;14.20;6.90;;;;;;;-147.86;100.00;50538.63;105875;1256;61781;-45
2023/11/16 07:26:20;;;;;;;13.20;7.20;;;;;;;-147.86;100.00;50554.32;105887;1253;60530;-45
2023/11/16 07:28:48;;;;;;;9.90;6.70;;;;;;;-147.86;100.00;50530.39;105850;1253;73841;-47
2023/11/16 07:31:19;;;;;;;14.70;7.10;;;;;;;-147.86;100.00;50563.35;105886;1253;65330;-45
2023/11/16 07:33:51;;;;;;;10.20;6.70;;;;;;;-147.86;100.00;50557.46;105954;1254;72694;-47
2023/11/16 07:36:25;;;;;;;10.20;6.50;;;;;;;-147.86;100.00;50555.11;105940;1252;61799;-48
2023/11/16 07:38:57;;;;;;;12.80;7.00;;;;;;;-147.86;100.00;50573.16;105984;1251;60444;-48
2023/11/16 07:41:28;;;;;;;9.30;6.60;;;;;;;-147.86;100.00;50574.33;105932;1255;73857;-46
2023/11/16 07:43:56;;;;;;;24.10;8.20;;;;;;;-147.86;100.00;50564.13;105922;1256;65455;-44
2023/11/16 07:46:24;;;;;;;107.20;11.80;;;;;;;-147.86;100.00;50577.08;105896;1252;72610;-47
2023/11/16 07:48:54;;;;;;;21.30;7.10;;;;;;;-147.86;100.00;50583.36;105930;1253;61890;-46
2023/11/16 07:51:25;;;;;;;44.70;8.50;;;;;;;-147.86;100.00;50596.70;105920;1253;60416;-44
2023/11/16 07:53:53;;;;;;;30.90;7.70;;;;;;;-147.86;100.00;50584.93;105934;1253;72773;-48
2023/11/16 07:56:23;;;;;;;54.90;10.30;;;;;;;-147.86;100.00;50600.23;105960;1256;65443;-47
2023/11/16 07:58:52;;;;;;;23.30;7.50;;;;;;;-147.86;100.00;50613.96;105916;1253;72407;-45
2023/11/16 08:01:28;;;;;;;69.70;10.40;;;;;;;-147.86;100.00;50601.01;105886;1256;61814;-46
2023/11/16 08:03:56;;;;;;;48.30;9.20;;;;;;;-147.86;100.00;50619.05;105886;1254;60393;-46
2023/11/16 08:06:24;;;;;;;54.20;8.60;;;;;;;-147.86;100.00;50627.69;105897;1253;72347;-46
2023/11/16 08:08:53;;;;;;;19.70;7.50;;;;;;;-147.86;100.00;50616.70;105914;1256;65135;-47
2023/11/16 08:11:22;;;;;;;46.60;9.90;;;;;;;-147.86;100.00;50655.54;105940;1253;72735;-48
2023/11/16 08:13:50;;;;;;;22.80;7.70;;;;;;;-147.86;100.00;50626.51;105973;1256;60422;-48
2023/11/16 08:16:20;;;;;;;56.20;9.60;;;;;;;-147.86;100.00;50640.24;105954;1252;60421;-46
2023/11/16 08:18:48;;;;;;;12.50;6.80;;;;;;;-147.86;100.00;50637.50;105931;1253;73828;-48
2023/11/16 08:21:16;;;;;;;9.80;6.70;;;;;;;-147.86;100.00;50647.30;105934;1253;65980;-46
2023/11/16 08:23:45;;;;;;;14.60;6.30;;;;;;;-147.86;100.00;50657.11;105886;1253;72493;-44
2023/11/16 08:26:18;;;;;;;56.80;8.60;;;;;;;-147.86;100.00;50667.70;105856;1253;61893;-44
2023/11/16 08:28:47;;;;;;;26.70;7.50;;;;;;;-147.86;100.00;50650.05;105883;1253;60527;-45
2023/11/16 08:31:15;;;;;;;82.20;10.70;;;;;;;-147.86;100.00;50655.14;105932;1256;73708;-47
2023/11/16 08:33:43;;;;;;;29.30;7.60;;;;;;;-147.86;100.00;50656.32;105945;1256;65283;-47
2023/11/16 08:36:11;;;;;;;33.60;7.60;;;;;;;-147.86;100.00;50659.07;105948;1256;71061;-48
2023/11/16 08:38:41;;;;;;;11.10;6.00;;;;;;;-147.86;100.00;50672.80;105922;1252;60457;-46
2023/11/16 08:41:10;;;;;;;32.50;7.30;;;;;;;-147.86;100.00;50674.77;105914;1253;60530;-45
2023/11/16 08:43:37;;;;;;;22.50;6.80;;;;;;;-147.86;100.00;50664.96;105926;1253;74162;-45
2023/11/16 08:46:06;;;;;;;65.30;10.00;;;;;;;-147.86;100.00;50688.50;105881;1256;64416;-46
2023/11/16 08:48:33;;;;;;;55.10;9.60;;;;;;;-147.86;100.00;50668.09;105918;1253;72567;-45
2023/11/16 08:51:08;;;;;;;25.40;7.70;;;;;;;-147.86;100.00;50678.29;105907;1255;62025;-47
2023/11/16 08:53:39;;;;;;;55.20;9.60;;;;;;;-147.86;100.00;50684.96;105959;1252;61040;-46
2023/11/16 08:56:07;;;;;;;27.90;8.00;;;;;;;-147.86;100.00;50681.82;105936;1256;73713;-45
2023/11/16 08:58:37;;;;;;;55.80;9.00;;;;;;;-147.86;100.00;50684.57;105957;1256;64272;-45
2023/11/16 09:01:10;;;;;;;28.80;8.90;;;;;;;-147.86;100.00;50677.90;105953;1253;72168;-47
2023/11/16 09:03:45;;;;;;;45.60;9.10;;;;;;;-147.86;100.00;50701.45;105987;1255;60846;-49
2023/11/16 09:06:21;;;;;;;53.90;10.10;;;;;;;-147.86;100.00;50697.52;105866;1253;60603;-52
2023/11/16 09:08:49;;;;;;;16.50;6.90;;;;;;;-147.86;100.00;50694.77;105791;1252;73883;-48
2023/11/16 09:11:19;;;;;;;80.80;8.90;;;;;;;-147.86;100.00;50676.34;105808;1253;65584;-48
2023/11/16 09:13:48;;;;;;;83.20;10.30;;;;;;;-147.86;100.00;50681.82;105945;1254;72692;-48
2023/11/16 09:16:15;;;;;;;44.60;9.20;;;;;;;-147.86;100.00;50697.91;105906;1251;61740;-44
2023/11/16 09:18:43;;;;;;;85.20;11.80;;;;;;;-147.86;100.00;50695.95;105865;1256;60414;-48
2023/11/16 09:21:14;;;;;;;92.00;12.90;;;;;;;-147.86;100.00;50680.26;105940;1251;74857;-49
2023/11/16 09:23:43;;;;;;;82.80;10.60;;;;;;;-147.86;100.00;50680.26;105977;1253;65262;-50
2023/11/16 09:26:10;;;;;;;69.20;10.70;;;;;;;-147.86;100.00;50673.98;105939;1253;72710;-49
2023/11/16 09:28:38;;;;;;;57.60;10.50;;;;;;;-147.86;100.00;50683.40;105886;1256;60799;-48
2023/11/16 09:31:10;;;;;;;80.20;11.60;;;;;;;-147.86;100.00;50678.69;105916;1252;60673;-47
2023/11/16 09:33:40;;;;;;;43.20;9.10;;;;;;;-147.86;100.00;50694.77;105918;1255;71806;-46
2023/11/16 09:36:10;;;;;;;50.50;9.70;;;;;;;-147.86;100.00;50694.77;105977;1256;65413;-47
2023/11/16 09:38:37;;;;;;;70.20;10.80;;;;;;;-147.86;100.00;50679.48;105999;1253;71467;-45
2023/11/16 09:41:15;;;;;;;22.50;7.90;;;;;;;-147.86;100.00;50680.65;105941;1253;61658;-46
2023/11/16 09:43:45;;;;;;;20.30;7.10;;;;;;;-147.86;100.00;50687.71;105955;1253;60467;-44
2023/11/16 09:46:13;;;;;;;83.70;11.00;;;;;;;-147.86;100.00;50664.96;105728;1253;74090;-46
2023/11/16 09:48:40;;;;;;;82.70;10.20;;;;;;;-147.86;100.00;50666.13;105754;1259;66436;-45
2023/11/16 09:51:08;;;;;;;68.40;10.20;;;;;;;-147.86;100.00;50668.88;105929;1253;72850;-46
2023/11/16 09:53:38;;;;;;;15.10;7.10;;;;;;;-147.86;100.00;50657.50;105894;1253;61481;-45
2023/11/16 09:56:07;;;;;;;19.80;6.70;;;;;;;-147.86;100.00;50672.41;105909;1251;60591;-45
2023/11/16 09:58:39;;;;;;;11.40;7.40;;;;;;;-147.86;100.00;50668.49;105935;1253;73906;-47
2023/11/16 10:01:10;;;;;;;10.30;6.70;;;;;;;-147.86;100.00;50661.03;105970;1253;65761;-48
2023/11/16 10:03:40;;;;;;;12.20;7.30;;;;;;;-147.86;100.00;50671.63;105938;1258;72521;-45
2023/11/16 10:06:09;;;;;;;7.20;6.50;;;;;;;-147.86;100.00;50669.66;105899;1256;62668;-45
2023/11/16 10:08:39;;;;;;;9.90;7.70;;;;;;;-147.86;100.00;50666.52;105956;1256;60429;-47
2023/11/16 10:11:06;;;;;;;9.80;6.70;;;;;;;-147.86;100.00;50653.19;105879;1254;74745;-45
2023/11/16 10:13:35;;;;;;;8.80;6.80;;;;;;;-147.86;100.00;50657.89;105812;1256;66526;-46
2023/11/16 10:16:09;;;;;;;8.90;7.50;;;;;;;-147.86;100.00;50650.05;105722;1253;72713;-45
2023/11/16 10:18:37;;;;;;;9.50;6.90;;;;;;;-147.86;100.00;50671.63;105802;1252;63030;-49
2023/11/16 10:21:05;;;;;;;10.10;7.40;;;;;;;-147.86;100.00;50663.39;105924;1253;60533;-47
2023/11/16 10:23:32;;;;;;;11.40;7.60;;;;;;;-147.86;100.00;50653.97;105948;1256;74164;-49
2023/11/16 10:25:59;;;;;;;9.70;7.90;;;;;;;-147.86;100.00;50648.09;105937;1253;65489;-44
2023/11/16 10:28:27;;;;;;;13.00;8.10;;;;;;;-147.86;100.00;50615.91;105991;1254;72622;-44
2023/11/16 10:30:56;;;;;;;11.80;8.10;;;;;;;-147.86;100.00;50644.16;105906;1256;62423;-47
2023/11/16 10:33:24;;;;;;;11.70;8.80;;;;;;;-147.86;100.00;50656.72;105875;1256;60328;-44
2023/11/16 10:36:01;;;;;;;13.70;8.40;;;;;;;-147.86;100.00;50655.15;105953;1254;74267;-46
2023/11/16 10:38:29;;;;;;;10.70;8.60;;;;;;;-147.86;100.00;50651.62;105860;1255;65063;-46
2023/11/16 10:40:56;;;;;;;10.00;8.50;;;;;;;-147.86;100.00;50640.63;105916;1253;72712;-46
2023/11/16 10:43:25;;;;;;;11.00;8.40;;;;;;;-147.86;100.00;50642.59;105879;1251;62011;-47
2023/11/16 10:46:00;;;;;;;11.40;9.00;;;;;;;-147.86;100.00;50639.06;105936;1251;60443;-47
2023/11/16 10:48:28;;;;;;;10.90;8.70;;;;;;;-147.86;100.00;50651.23;105941;1251;74258;-47
2023/11/16 10:50:58;;;;;;;10.40;8.50;;;;;;;-147.86;100.00;50651.23;105904;1257;66798;-45
2023/11/16 10:53:31;;;;;;;15.40;8.80;;;;;;;-147.86;100.00;50641.42;105907;1256;72637;-48
2023/11/16 10:55:57;;;;;;;11.80;9.20;;;;;;;-147.86;100.00;50653.97;105893;1253;62774;-48
2023/11/16 10:58:27;;;;;;;15.50;10.00;;;;;;;-147.86;100.00;50681.82;105900;1252;60966;-45
2023/11/16 11:00:59;;;;;;;16.10;10.30;;;;;;;-147.86;100.00;50671.63;105876;1253;74691;-47